Have a Safe July 4th! 

Flight Track Log - Related Links

Times and Time Zones

All times are in EDT time to prevent confusion due to time zone crossing. See the AWI3780 flight status page for this flight to view local times or setup timezone preferences in your user account.

Time Position Orientation Groundspeed Altitude Reporting Facility
EDT Latitude Longitude Course Direction KTS MPH feet Rate Location/Type
Tue 04:32:51 PM 44.2589 -73.2025 195° South 311 358 8,900  Level Boston Center
Tue 04:33:51 PM 44.1814 -73.2333 196° South 297 342 11,400 2,200 Climbing Boston Center
Tue 04:34:51 PM 44.1000 -73.2669 197° South 297 342 13,300 1,900 Climbing Boston Center
Tue 04:35:51 PM 44.0144 -73.3003 196° South 309 356 15,200 2,100 Climbing Boston Center
Tue 04:36:00 PM 43.8379 -73.3896 195° South  Level FlightAware Approximate
Tue 04:36:51 PM 43.9267 -73.3367 197° South 320 368 17,500  Level Boston Center
Tue 04:37:00 PM 43.7327 -73.4284 195° South  Level FlightAware Approximate
Tue 04:37:51 PM 43.8342 -73.4072 209° Southwest 328 377 19,700  Level Boston Center
Tue 04:38:00 PM 43.6276 -73.4671 195° South  Level FlightAware Approximate
Tue 04:38:51 PM 43.7567 -73.4806 214° Southwest 349 402 21,200  Level Boston Center
Tue 04:39:51 PM 43.6725 -73.5625 215° Southwest 363 418 22,800 1,500 Climbing Boston Center
Tue 04:40:51 PM 43.5861 -73.6411 213° Southwest 363 418 24,200 1,200 Climbing Boston Center
Tue 04:41:51 PM 43.5019 -73.7253 216° Southwest 368 423 25,200 900 Climbing Boston Center
Tue 04:42:51 PM 43.4114 -73.8119 215° Southwest 383 441 26,000 400 Climbing Boston Center
Tue 04:43:51 PM 43.3142 -73.9011 214° Southwest 408 470 26,000  Level Boston Center
Tue 04:44:51 PM 43.2236 -73.9872 215° Southwest 408 470 26,000  Level Boston Center
Tue 04:45:51 PM 43.1433 -74.0678 216° Southwest 408 470 26,000  Level Boston Center
Tue 04:46:51 PM 43.0544 -74.1506 214° Southwest 402 463 26,000  Level Boston Center
Tue 04:48:03 PM 42.9656 -74.2361 215° Southwest 402 463 26,000  Level Boston Center
Tue 04:49:03 PM 42.8597 -74.3322 214° Southwest 397 457 26,000  Level Boston Center
Tue 04:50:03 PM 42.7731 -74.4144 215° Southwest 397 457 26,000  Level Boston Center
Tue 04:51:03 PM 42.7031 -74.4744 212° Southwest 392 451 26,000  Level Boston Center
Tue 04:52:03 PM 42.5972 -74.5753 215° Southwest 387 445 26,000  Level Boston Center
Tue 04:53:03 PM 42.5100 -74.6539 214° Southwest 387 445 26,000  Level Boston Center
Tue 04:54:03 PM 42.4250 -74.7353 215° Southwest 387 445 26,000 -706 Level Boston Center
Tue 04:55:53 PM 42.2581 -74.8867 214° Southwest 382 440 24,000 -1,123 Descending New York Center
Tue 04:56:54 PM 42.1869 -74.9494 213° Southwest 387 445 22,800 -1,475 Descending New York Center
Tue 04:57:55 PM 42.0883 -75.0325 212° Southwest 387 445 21,000 -1,714 Descending New York Center
Tue 04:58:53 PM 41.9961 -75.1075 211° Southwest 387 445 19,400 -1,026 Descending New York Center
Tue 04:59:52 PM 41.9017 -75.1878 212° Southwest 382 440 19,000 -500 Descending New York Center
Tue 05:00:53 PM 41.8222 -75.2519 211° Southwest 375 432 18,400 -893 Descending New York Center
Tue 05:01:53 PM 41.7306 -75.3042 203° Southwest 370 426 17,200 -1,289 Descending New York Center
Tue 05:02:54 PM 41.6286 -75.3556 201° Southwest 359 413 15,800 -1,488 Descending New York Center
Tue 05:03:54 PM 41.5469 -75.4219 211° Southwest 348 400 14,200 -1,636 Descending New York Center
Tue 05:04:55 PM 41.4878 -75.5008 225° Southwest 337 388 12,500 -1,091 Descending New York Center
Tue 05:05:55 PM 41.4181 -75.5736 218° Southwest 331 381 12,000 -254 Descending New York Center
Tue 05:06:53 PM 41.3383 -75.6369 211° Southwest 331 381 12,000  Level New York Center
Tue 05:07:53 PM 41.2469 -75.6856 202° Southwest 329 379 12,000  Level New York Center
Tue 05:08:53 PM 41.1592 -75.6875 181° South 321 369 12,000  Level New York Center
Tue 05:09:54 PM 41.0675 -75.6892 181° South 326 375 12,000  Level New York Center
Tue 05:10:54 PM 40.9781 -75.6881 179° South 326 375 12,000  Level New York Center
Tue 05:11:55 PM 40.8883 -75.6869 179° South 326 375 12,000  Level New York Center
Tue 05:12:53 PM 40.8072 -75.6867 180° South 326 375 12,000 -407 Level New York Center
Tue 05:13:53 PM 40.7094 -75.6850 179° South 326 375 11,200 -793 Descending New York Center
Tue 05:14:54 PM 40.6239 -75.6872 181° South 321 369 10,400 -590 Descending New York Center
Tue 05:15:55 PM 40.5592 -75.6417 152° Southeast 285 328 10,000 -202 Descending New York Center
Tue 05:16:53 PM 40.5206 -75.5650 124° Southeast 263 303 10,000 -403 Level New York Center
Tue 05:17:54 PM 40.4761 -75.4775 124° Southeast 263 303 9,200 -793 Descending New York Center
Tue 05:18:54 PM 40.4267 -75.4086 133° Southeast 263 303 8,400 -1,438 Descending New York Center
Tue 05:19:55 PM 40.3572 -75.4258 191° South 238 274 6,300 -1,190 Descending New York Center
Tue 05:20:55 PM 40.3006 -75.4356 187° South 238 274 6,000 -610 Descending New York Center
Tue 05:21:53 PM 40.2553 -75.4189 164° South 192 221 5,100 -1,008 Descending New York Center
Tue 05:22:54 PM 40.2061 -75.3992 163° South 171 197 4,000 -541 Descending New York Center
Tue 05:23:55 PM 40.1611 -75.3772 160° South 171 197 4,000 -403 Level New York Center
Tue 05:24:53 PM 40.1244 -75.3586 159° South 163 188 3,200 -750 Descending New York Center
Tue 05:25:15 PM 40.1167 -75.3500 140° Southeast 158 182 3,000 -158 Descending Philadelphia TRACON
Tue 05:26:09 PM 40.0667 -75.3333 166° South 165 190 3,000 -53 Level Philadelphia TRACON
Tue 05:27:09 PM 40.0333 -75.3000 143° Southeast 164 189 2,900 -500 Descending Philadelphia TRACON
Tue 05:28:09 PM 39.9833 -75.2833 166° South 162 186 2,000 -850 Descending Philadelphia TRACON
Tue 05:29:09 PM 39.9500 -75.2667 159° South 149 171 1,200 -750 Descending Philadelphia TRACON
Tue 05:30:09 PM 39.9000 -75.2500 166° South 138 159 500 -700 Descending Philadelphia TRACON
Tue 05:32:00 PM 39.8667 -75.2333 247° West  Level FlightAware Approximate
Tue 05:39:00 PM 39.8722 -75.2409 247° West  Level Estimated

Login

Don't have an account? Register now (free) for customized features, flight alerts, and more!